Time;durP1;ratioP1;P1;durP2;ratioP2;P2;SDS_P1;SDS_P2;PMS_P1;PMS_P2;Temp;Humidity;BMP_temperature;BMP_pressure;BME280_temperature;BME280_humidity;BME280_pressure;Samples;Min_cycle;Max_cycle;Signal;HPM_P1;HPM_P2
2022/10/29 00:07:04;;;;;;;14.30;3.72;;;;;;;;;;5613297;25;20479;-90
2022/10/29 00:10:53;;;;;;;12.40;3.90;;;;;;;;;;5625488;25;20366;-91
2022/10/29 00:18:29;;;;;;;15.05;4.32;;;;;;;;;;5691181;25;20095;-91
2022/10/29 00:26:55;;;;;;;17.15;4.20;;;;;;;;;;5738135;24;20023;-89
2022/10/29 00:44:17;;;;;;;13.77;3.53;;;;;;;;;;5895139;24;20063;-94
2022/10/29 00:52:15;;;;;;;10.93;3.70;;;;;;;;;;5817890;24;20073;-90
2022/10/29 01:03:42;;;;;;;16.95;3.50;;;;;;;;;;5866385;24;20022;-90
2022/10/29 01:07:30;;;;;;;12.02;3.30;;;;;;;;;;5881840;24;20025;-90
2022/10/29 01:11:34;;;;;;;16.80;3.38;;;;;;;;;;5864077;24;20462;-90
2022/10/29 01:15:15;;;;;;;12.00;3.95;;;;;;;;;;5863303;24;20144;-89
2022/10/29 01:23:32;;;;;;;13.90;3.17;;;;;;;;;;5819308;24;20053;-90
2022/10/29 01:27:22;;;;;;;18.13;3.63;;;;;;;;;;5818989;24;20023;-90
2022/10/29 01:35:41;;;;;;;13.43;3.53;;;;;;;;;;5872083;24;20014;-90
2022/10/29 01:39:19;;;;;;;13.52;3.35;;;;;;;;;;5839501;24;20023;-90
2022/10/29 01:42:57;;;;;;;17.33;4.30;;;;;;;;;;5769371;24;20031;-91
2022/10/29 01:50:03;;;;;;;18.90;3.65;;;;;;;;;;5688648;25;20099;-90
2022/10/29 01:53:23;;;;;;;13.13;3.70;;;;;;;;;;5687517;25;20053;-95
2022/10/29 02:06:26;;;;;;;15.93;3.05;;;;;;;;;;5640472;25;20034;-96
2022/10/29 02:10:29;;;;;;;16.42;4.03;;;;;;;;;;5747770;24;20138;-96
2022/10/29 02:14:45;;;;;;;12.05;3.67;;;;;;;;;;5742736;24;21153;-91
2022/10/29 02:21:27;;;;;;;19.95;3.38;;;;;;;;;;5739812;24;20442;-90
2022/10/29 02:28:54;;;;;;;11.45;4.40;;;;;;;;;;5775440;24;20023;-89
2022/10/29 02:32:02;;;;;;;13.73;4.32;;;;;;;;;;5791527;24;20023;-91
2022/10/29 02:35:04;;;;;;;12.98;3.65;;;;;;;;;;5856027;24;20789;-91
2022/10/29 02:38:07;;;;;;;13.23;4.32;;;;;;;;;;5838825;24;20050;-91
2022/10/29 02:42:38;;;;;;;13.10;3.75;;;;;;;;;;5845758;24;20105;-95
2022/10/29 02:46:55;;;;;;;17.90;4.35;;;;;;;;;;5883825;24;20025;-95
2022/10/29 02:55:11;;;;;;;15.57;4.05;;;;;;;;;;5989606;23;20019;-90
2022/10/29 02:58:22;;;;;;;18.27;4.20;;;;;;;;;;5982769;23;20044;-90
2022/10/29 03:01:34;;;;;;;15.00;3.88;;;;;;;;;;6028610;23;20094;-89
2022/10/29 03:08:44;;;;;;;12.50;3.97;;;;;;;;;;6086619;23;20059;-89
2022/10/29 03:12:50;;;;;;;14.10;3.97;;;;;;;;;;6046570;23;20027;-89
2022/10/29 03:16:53;;;;;;;16.98;4.22;;;;;;;;;;6119556;23;20084;-89
2022/10/29 03:21:13;;;;;;;13.35;3.70;;;;;;;;;;6144647;23;20100;-94
2022/10/29 03:24:38;;;;;;;15.90;5.10;;;;;;;;;;6122271;23;20021;-90
2022/10/29 03:41:23;;;;;;;12.65;3.90;;;;;;;;;;6151080;23;20018;-91
2022/10/29 03:44:36;;;;;;;14.07;3.88;;;;;;;;;;6151456;23;20376;-91
2022/10/29 03:48:50;;;;;;;12.85;3.70;;;;;;;;;;6033320;23;20027;-91
2022/10/29 04:09:37;;;;;;;15.32;4.18;;;;;;;;;;6156459;23;20009;-96
2022/10/29 04:17:15;;;;;;;17.45;5.72;;;;;;;;;;6132980;23;20014;-90
2022/10/29 04:24:48;;;;;;;25.98;5.18;;;;;;;;;;6243081;22;20008;-89
2022/10/29 04:28:27;;;;;;;16.90;5.87;;;;;;;;;;6236756;22;20073;-89
2022/10/29 04:31:58;;;;;;;13.02;5.15;;;;;;;;;;6231408;23;20027;-90
2022/10/29 04:36:04;;;;;;;14.52;5.32;;;;;;;;;;6211216;22;20016;-90
2022/10/29 04:44:03;;;;;;;13.77;5.43;;;;;;;;;;6196422;23;20096;-89
2022/10/29 04:47:35;;;;;;;16.60;5.28;;;;;;;;;;6100373;23;20018;-89
2022/10/29 04:50:57;;;;;;;18.70;5.95;;;;;;;;;;6112045;23;20053;-96
2022/10/29 04:59:24;;;;;;;17.25;5.22;;;;;;;;;;6007526;23;20020;-96
2022/10/29 05:03:49;;;;;;;14.90;5.25;;;;;;;;;;6018871;23;20186;-96
2022/10/29 05:08:20;;;;;;;12.55;4.78;;;;;;;;;;6006508;23;20347;-96
2022/10/29 05:12:30;;;;;;;13.32;4.85;;;;;;;;;;5978343;23;20024;-90
2022/10/29 05:16:32;;;;;;;15.05;4.63;;;;;;;;;;5981378;23;20027;-90
2022/10/29 05:20:11;;;;;;;15.38;4.90;;;;;;;;;;6002490;23;20063;-91
2022/10/29 05:24:39;;;;;;;12.00;4.35;;;;;;;;;;5991083;23;20027;-91
2022/10/29 05:28:02;;;;;;;13.73;5.68;;;;;;;;;;5981922;23;20023;-91
2022/10/29 05:31:28;;;;;;;12.95;5.28;;;;;;;;;;5955811;24;20049;-91
2022/10/29 05:34:27;;;;;;;21.85;5.57;;;;;;;;;;5054467;28;20431;-80
2022/10/29 05:36:59;;;;;;;16.40;5.28;;;;;;;;;;5037685;28;20045;-80
2022/10/29 05:39:31;;;;;;;14.60;5.78;;;;;;;;;;5041037;28;20045;-80
2022/10/29 05:41:59;;;;;;;14.48;5.63;;;;;;;;;;5042886;28;20122;-81
2022/10/29 05:44:31;;;;;;;15.52;5.57;;;;;;;;;;5044788;28;20140;-80
2022/10/29 05:46:59;;;;;;;17.92;5.80;;;;;;;;;;5037253;28;20041;-80
2022/10/29 05:49:53;;;;;;;23.25;6.03;;;;;;;;;;5040906;28;20482;-80
2022/10/29 05:52:25;;;;;;;16.50;5.13;;;;;;;;;;5052742;28;20102;-79
2022/10/29 05:54:58;;;;;;;18.55;5.55;;;;;;;;;;5039074;28;20037;-80
2022/10/29 05:57:26;;;;;;;13.70;5.65;;;;;;;;;;5038873;28;20841;-80
2022/10/29 06:00:19;;;;;;;20.13;5.53;;;;;;;;;;5037675;28;20181;-80
2022/10/29 06:02:47;;;;;;;18.00;5.80;;;;;;;;;;5038395;28;20037;-80
2022/10/29 06:05:15;;;;;;;16.42;6.00;;;;;;;;;;5037517;28;20038;-80
2022/10/29 06:07:54;;;;;;;15.85;5.05;;;;;;;;;;5040356;28;20138;-79
2022/10/29 06:10:28;;;;;;;15.45;4.93;;;;;;;;;;5039690;28;20055;-80
2022/10/29 06:12:55;;;;;;;19.20;5.53;;;;;;;;;;5039549;28;20459;-80
2022/10/29 06:15:48;;;;;;;12.82;5.13;;;;;;;;;;5040358;28;20041;-79
2022/10/29 06:18:15;;;;;;;11.05;4.70;;;;;;;;;;5053387;28;20132;-80
2022/10/29 06:21:07;;;;;;;12.77;5.32;;;;;;;;;;5037270;28;20041;-80
2022/10/29 06:23:35;;;;;;;13.90;5.13;;;;;;;;;;5036911;28;20504;-80
2022/10/29 06:26:29;;;;;;;18.17;5.25;;;;;;;;;;5038652;28;20582;-80
2022/10/29 06:28:57;;;;;;;18.25;5.32;;;;;;;;;;5033701;28;20121;-80
2022/10/29 06:31:29;;;;;;;16.55;5.68;;;;;;;;;;5035352;28;20045;-80
2022/10/29 06:33:57;;;;;;;10.88;4.97;;;;;;;;;;5053636;28;20627;-80
2022/10/29 06:36:29;;;;;;;14.68;6.00;;;;;;;;;;5039131;28;20071;-80
2022/10/29 06:38:57;;;;;;;20.17;5.55;;;;;;;;;;5039876;28;20037;-80
2022/10/29 06:41:29;;;;;;;15.77;5.22;;;;;;;;;;5039917;28;20568;-81
2022/10/29 06:43:57;;;;;;;18.52;5.57;;;;;;;;;;5033405;28;20088;-81
2022/10/29 06:46:25;;;;;;;11.75;5.32;;;;;;;;;;5024742;28;20041;-80
2022/10/29 06:48:57;;;;;;;18.10;6.07;;;;;;;;;;5038364;28;20677;-80
2022/10/29 06:51:25;;;;;;;12.52;5.43;;;;;;;;;;5024369;28;20056;-80
2022/10/29 06:53:53;;;;;;;12.80;5.28;;;;;;;;;;5025540;28;20045;-80
2022/10/29 06:56:25;;;;;;;17.50;6.07;;;;;;;;;;5024234;28;20503;-81
2022/10/29 06:59:17;;;;;;;19.20;5.93;;;;;;;;;;5023356;28;20045;-80
2022/10/29 07:01:45;;;;;;;15.30;5.70;;;;;;;;;;5019648;28;20745;-80
2022/10/29 07:04:13;;;;;;;20.08;6.28;;;;;;;;;;5022475;28;20053;-80
2022/10/29 07:06:41;;;;;;;19.83;6.22;;;;;;;;;;5023554;28;20041;-80
2022/10/29 07:09:13;;;;;;;17.45;5.80;;;;;;;;;;5025456;28;20585;-80
2022/10/29 07:12:05;;;;;;;14.93;5.90;;;;;;;;;;5025506;28;20131;-81
2022/10/29 07:14:33;;;;;;;18.67;6.20;;;;;;;;;;5019486;28;20526;-81
2022/10/29 07:17:05;;;;;;;16.55;6.15;;;;;;;;;;5022777;28;20120;-82
2022/10/29 07:19:33;;;;;;;14.75;5.70;;;;;;;;;;5020120;28;20256;-81
2022/10/29 07:22:01;;;;;;;14.50;6.40;;;;;;;;;;5026843;28;20061;-81
2022/10/29 07:24:29;;;;;;;14.88;6.45;;;;;;;;;;5023925;28;20038;-81
2022/10/29 07:27:21;;;;;;;15.18;6.25;;;;;;;;;;5026295;28;20121;-81
2022/10/29 07:29:53;;;;;;;20.48;6.22;;;;;;;;;;5024174;28;20157;-81
2022/10/29 07:32:22;;;;;;;13.35;5.57;;;;;;;;;;5024349;28;20038;-80
2022/10/29 07:34:49;;;;;;;27.58;9.25;;;;;;;;;;5021620;28;20037;-81
2022/10/29 07:37:17;;;;;;;20.42;8.50;;;;;;;;;;5025208;28;20515;-80
2022/10/29 07:40:10;;;;;;;19.60;6.25;;;;;;;;;;5023944;28;20037;-81
2022/10/29 07:42:37;;;;;;;21.33;7.38;;;;;;;;;;5022249;28;20046;-81
2022/10/29 07:45:05;;;;;;;21.77;7.45;;;;;;;;;;5024127;28;20136;-79
2022/10/29 07:48:02;;;;;;;19.92;8.55;;;;;;;;;;5023956;28;20910;-80
2022/10/29 07:50:36;;;;;;;21.45;8.73;;;;;;;;;;5023532;28;20500;-80
2022/10/29 07:53:06;;;;;;;20.88;8.45;;;;;;;;;;5020900;28;20103;-80
2022/10/29 07:56:00;;;;;;;22.35;8.48;;;;;;;;;;5022120;28;20435;-79
2022/10/29 07:58:51;;;;;;;19.17;8.05;;;;;;;;;;5026827;28;20120;-79
2022/10/29 08:01:23;;;;;;;30.33;9.55;;;;;;;;;;5021095;28;20706;-81
2022/10/29 08:03:56;;;;;;;34.13;11.75;;;;;;;;;;5023368;28;20152;-80
2022/10/29 08:06:23;;;;;;;30.92;12.52;;;;;;;;;;5023297;28;20045;-80
2022/10/29 08:08:51;;;;;;;30.17;12.23;;;;;;;;;;5022727;28;20407;-80
2022/10/29 08:11:19;;;;;;;27.40;12.07;;;;;;;;;;5022231;28;20091;-80
2022/10/29 08:13:51;;;;;;;26.92;12.77;;;;;;;;;;5020934;28;20141;-79
2022/10/29 08:16:19;;;;;;;32.00;12.85;;;;;;;;;;5023599;28;20472;-80
2022/10/29 08:18:47;;;;;;;31.00;13.82;;;;;;;;;;5021863;28;20041;-81
2022/10/29 08:21:15;;;;;;;42.38;15.48;;;;;;;;;;5033532;28;20088;-82
2022/10/29 08:23:44;;;;;;;35.30;14.15;;;;;;;;;;5021848;28;20045;-83
2022/10/29 08:26:19;;;;;;;32.08;14.50;;;;;;;;;;5022019;28;20147;-84
2022/10/29 08:28:47;;;;;;;29.45;14.52;;;;;;;;;;5023087;28;20149;-84
2022/10/29 08:31:15;;;;;;;32.83;16.40;;;;;;;;;;5018243;28;20515;-83
2022/10/29 08:34:07;;;;;;;31.70;15.48;;;;;;;;;;5019933;28;20033;-83
2022/10/29 08:36:37;;;;;;;37.75;16.25;;;;;;;;;;5022321;28;20047;-84
2022/10/29 08:39:14;;;;;;;33.67;16.70;;;;;;;;;;5034539;28;20182;-84
2022/10/29 08:41:59;;;;;;;34.70;18.70;;;;;;;;;;5022328;28;20053;-85
2022/10/29 08:45:50;;;;;;;36.38;17.58;;;;;;;;;;5022208;28;20041;-83
2022/10/29 08:49:10;;;;;;;41.08;17.88;;;;;;;;;;5021575;28;20133;-84
2022/10/29 08:51:58;;;;;;;33.47;16.75;;;;;;;;;;5023795;28;20100;-84
2022/10/29 08:54:33;;;;;;;37.90;18.67;;;;;;;;;;5022409;28;20399;-84
2022/10/29 08:57:54;;;;;;;35.03;17.05;;;;;;;;;;5023912;28;20029;-83
2022/10/29 09:00:31;;;;;;;30.58;17.05;;;;;;;;;;5019715;28;20513;-84
2022/10/29 09:03:09;;;;;;;31.40;16.63;;;;;;;;;;5006792;28;20143;-84
2022/10/29 09:06:08;;;;;;;28.88;16.00;;;;;;;;;;5022515;28;20076;-84
2022/10/29 09:11:59;;;;;;;33.00;15.45;;;;;;;;;;5023884;28;20056;-84
2022/10/29 09:15:00;;;;;;;30.95;15.40;;;;;;;;;;5036564;28;20033;-82
2022/10/29 09:18:29;;;;;;;28.67;13.75;;;;;;;;;;5027454;28;20051;-84
2022/10/29 09:22:48;;;;;;;28.88;14.15;;;;;;;;;;5022199;28;20041;-84
2022/10/29 09:32:27;;;;;;;28.88;13.32;;;;;;;;;;4931736;29;20039;-85
2022/10/29 09:36:23;;;;;;;29.08;12.82;;;;;;;;;;4886972;29;20084;-85
2022/10/29 09:39:35;;;;;;;32.58;12.63;;;;;;;;;;4889075;29;20067;-86
2022/10/29 09:42:17;;;;;;;32.55;13.70;;;;;;;;;;4889197;29;20057;-86
2022/10/29 09:44:57;;;;;;;30.10;13.95;;;;;;;;;;4858548;29;20504;-87
2022/10/29 09:48:08;;;;;;;33.38;14.68;;;;;;;;;;4892070;29;20059;-87
2022/10/29 09:51:25;;;;;;;31.40;15.98;;;;;;;;;;4893775;29;20052;-86
2022/10/29 09:53:53;;;;;;;33.05;15.85;;;;;;;;;;4886059;29;20041;-87
2022/10/29 09:56:21;;;;;;;40.13;16.20;;;;;;;;;;4865662;29;20064;-87
2022/10/29 09:58:55;;;;;;;39.10;17.42;;;;;;;;;;4869022;29;20428;-85
2022/10/29 10:01:27;;;;;;;36.08;16.85;;;;;;;;;;4903086;29;20672;-85
2022/10/29 10:04:03;;;;;;;36.60;16.25;;;;;;;;;;4924648;29;20058;-87
2022/10/29 10:07:10;;;;;;;37.60;16.25;;;;;;;;;;4939287;28;20113;-87
2022/10/29 10:10:22;;;;;;;35.03;16.42;;;;;;;;;;4968693;28;20420;-88
2022/10/29 10:13:05;;;;;;;33.42;15.38;;;;;;;;;;4961136;28;20085;-85
2022/10/29 10:16:04;;;;;;;34.60;15.38;;;;;;;;;;4962722;28;20417;-85
2022/10/29 10:19:22;;;;;;;30.70;13.90;;;;;;;;;;4961967;28;20131;-86
2022/10/29 11:42:45;;;;;;;27.27;10.55;;;;;;;;;;4908803;29;20044;-83
2022/10/29 11:47:02;;;;;;;24.67;10.32;;;;;;;;;;4870035;29;20424;-84
2022/10/29 11:49:34;;;;;;;;;;;;;;;;;;4883262;29;20084;-87
2022/10/29 11:52:07;;;;;;;24.30;9.88;;;;;;;;;;4852628;29;19980;-86
2022/10/29 11:55:16;;;;;;;25.98;9.23;;;;;;;;;;4883311;29;20076;-86
2022/10/29 11:58:01;;;;;;;24.30;9.00;;;;;;;;;;4883206;29;20049;-86
2022/10/29 12:00:56;;;;;;;17.17;9.25;;;;;;;;;;4882610;29;20056;-87
2022/10/29 12:03:43;;;;;;;21.13;8.85;;;;;;;;;;4866876;29;21756;-87
2022/10/29 12:06:53;;;;;;;23.10;8.43;;;;;;;;;;4919146;28;20039;-85
2022/10/29 12:09:43;;;;;;;17.85;8.32;;;;;;;;;;4965600;28;20109;-86
2022/10/29 12:12:47;;;;;;;29.42;8.35;;;;;;;;;;4943156;28;20420;-86
2022/10/29 12:15:21;;;;;;;27.98;9.60;;;;;;;;;;4962628;28;20043;-85
2022/10/29 12:18:33;;;;;;;22.58;8.45;;;;;;;;;;5007387;28;20207;-85
2022/10/29 12:21:26;;;;;;;17.65;7.65;;;;;;;;;;5022862;28;20121;-85
2022/10/29 12:24:13;;;;;;;23.85;9.00;;;;;;;;;;5038245;28;20037;-85
2022/10/29 12:27:03;;;;;;;17.00;7.60;;;;;;;;;;5020030;28;20044;-85
2022/10/29 12:30:02;;;;;;;15.63;7.40;;;;;;;;;;5018035;28;20169;-87
2022/10/29 12:33:38;;;;;;;21.90;8.25;;;;;;;;;;5028312;28;20382;-86
2022/10/29 12:36:28;;;;;;;20.35;7.63;;;;;;;;;;5035627;28;20072;-83
2022/10/29 12:39:01;;;;;;;22.20;7.68;;;;;;;;;;5022326;28;20034;-83
2022/10/29 12:41:40;;;;;;;17.30;7.20;;;;;;;;;;5022174;28;20046;-84
2022/10/29 12:45:38;;;;;;;17.42;6.68;;;;;;;;;;5031525;28;20065;-84
2022/10/29 12:49:56;;;;;;;17.85;7.72;;;;;;;;;;4993598;28;20074;-84
2022/10/29 12:54:06;;;;;;;24.70;6.97;;;;;;;;;;4994662;28;20471;-83
2022/10/29 12:58:42;;;;;;;19.17;7.43;;;;;;;;;;4983869;28;20042;-83
2022/10/29 13:02:37;;;;;;;21.70;7.05;;;;;;;;;;4966043;28;20133;-84
2022/10/29 13:06:33;;;;;;;23.88;6.72;;;;;;;;;;4959577;28;20061;-81
2022/10/29 13:09:20;;;;;;;19.35;7.05;;;;;;;;;;4961918;28;20417;-81
2022/10/29 13:11:53;;;;;;;20.23;6.47;;;;;;;;;;4946492;28;20531;-82
2022/10/29 13:14:48;;;;;;;22.25;7.28;;;;;;;;;;4945269;28;20627;-82
2022/10/29 13:17:48;;;;;;;17.45;6.85;;;;;;;;;;4945002;28;20149;-83
2022/10/29 13:21:16;;;;;;;16.73;6.80;;;;;;;;;;4954643;28;20058;-84
2022/10/29 13:24:28;;;;;;;;;;;;;;;;;;4996457;28;20041;-85
2022/10/29 13:28:28;;;;;;;20.48;6.70;;;;;;;;;;5005829;28;19924;-88
2022/10/29 13:33:22;;;;;;;16.20;5.88;;;;;;;;;;4942284;28;20039;-87
2022/10/29 13:37:37;;;;;;;20.63;6.25;;;;;;;;;;4836816;29;20085;-88
2022/10/29 13:50:38;;;;;;;19.92;6.50;;;;;;;;;;4808358;29;20049;-85
2022/10/29 13:55:19;;;;;;;19.70;5.93;;;;;;;;;;4794855;29;20656;-88
2022/10/29 13:59:42;;;;;;;18.23;5.85;;;;;;;;;;4796674;29;20138;-85
2022/10/29 14:03:45;;;;;;;14.00;6.78;;;;;;;;;;4802256;29;20073;-88
2022/10/29 14:07:19;;;;;;;18.95;6.55;;;;;;;;;;4798157;29;20126;-88
2022/10/29 14:10:30;;;;;;;;;;;;;;;;;;4799529;29;20062;-87
2022/10/29 14:17:55;;;;;;;18.40;5.93;;;;;;;;;;4831371;29;20131;-85
2022/10/29 14:21:42;;;;;;;23.08;6.50;;;;;;;;;;4834150;29;20061;-84
2022/10/29 14:31:21;;;;;;;14.93;5.18;;;;;;;;;;4860817;29;20603;-85
2022/10/29 14:40:51;;;;;;;16.38;6.20;;;;;;;;;;4763859;30;20079;-85
2022/10/29 14:45:10;;;;;;;49.30;8.45;;;;;;;;;;4759543;30;20106;-85
2022/10/29 14:53:29;;;;;;;28.15;6.82;;;;;;;;;;4665673;30;20082;-87
2022/10/29 14:55:57;;;;;;;19.77;6.95;;;;;;;;;;4621935;30;20063;-85
2022/10/29 14:58:32;;;;;;;15.80;6.13;;;;;;;;;;4640822;30;20070;-86
2022/10/29 15:01:24;;;;;;;23.00;6.95;;;;;;;;;;4653065;30;20054;-86
2022/10/29 15:04:00;;;;;;;19.48;6.30;;;;;;;;;;4681613;30;20116;-86
2022/10/29 15:06:45;;;;;;;24.60;6.38;;;;;;;;;;4740202;30;20055;-85
2022/10/29 15:09:19;;;;;;;21.50;6.53;;;;;;;;;;4744049;30;20512;-85
2022/10/29 15:12:02;;;;;;;23.52;6.57;;;;;;;;;;4743623;30;20087;-86
2022/10/29 15:14:36;;;;;;;18.27;6.15;;;;;;;;;;4742589;30;20048;-85
2022/10/29 15:17:30;;;;;;;22.38;6.40;;;;;;;;;;4742297;30;20610;-86
2022/10/29 15:20:38;;;;;;;21.73;6.75;;;;;;;;;;4743749;30;20068;-84
2022/10/29 15:23:48;;;;;;;20.08;6.22;;;;;;;;;;4735108;30;20219;-84
2022/10/29 15:26:57;;;;;;;20.27;6.68;;;;;;;;;;4744328;30;20048;-84
2022/10/29 15:29:38;;;;;;;23.88;6.68;;;;;;;;;;4834771;28;20185;-84
2022/10/29 15:32:28;;;;;;;17.27;5.40;;;;;;;;;;4985101;28;20279;-84
2022/10/29 15:35:08;;;;;;;20.02;6.10;;;;;;;;;;5020401;28;20071;-85
2022/10/29 15:38:55;;;;;;;14.52;5.43;;;;;;;;;;5023237;28;20041;-84
2022/10/29 15:41:45;;;;;;;14.43;5.47;;;;;;;;;;5024802;28;20174;-84
2022/10/29 15:44:36;;;;;;;22.38;7.60;;;;;;;;;;5006184;28;20150;-86
2022/10/29 15:47:20;;;;;;;21.02;6.88;;;;;;;;;;5017486;28;20045;-86
2022/10/29 15:49:54;;;;;;;18.30;6.57;;;;;;;;;;5024492;28;20064;-85
2022/10/29 15:52:44;;;;;;;20.85;6.53;;;;;;;;;;5041615;28;20160;-84
2022/10/29 15:55:19;;;;;;;60.30;18.10;;;;;;;;;;5025689;28;20045;-85
2022/10/29 15:58:03;;;;;;;23.77;7.55;;;;;;;;;;5026146;28;20041;-86
2022/10/29 16:00:57;;;;;;;44.05;14.27;;;;;;;;;;5025851;28;20033;-84
2022/10/29 16:03:29;;;;;;;30.50;10.32;;;;;;;;;;5022858;28;20128;-83
2022/10/29 16:06:04;;;;;;;25.42;6.95;;;;;;;;;;5034586;28;20148;-85
2022/10/29 16:08:46;;;;;;;14.68;6.05;;;;;;;;;;5037431;28;20033;-85
2022/10/29 16:11:20;;;;;;;16.20;6.60;;;;;;;;;;5038121;28;20143;-85
2022/10/29 16:13:51;;;;;;;23.85;6.85;;;;;;;;;;5039496;28;20038;-84
2022/10/29 16:16:43;;;;;;;17.05;6.72;;;;;;;;;;5030931;28;20049;-85
2022/10/29 16:19:11;;;;;;;16.45;6.80;;;;;;;;;;5021126;28;20052;-84
2022/10/29 16:21:43;;;;;;;17.85;7.10;;;;;;;;;;5020867;28;20132;-84
2022/10/29 16:24:15;;;;;;;24.88;6.60;;;;;;;;;;5023578;28;20065;-83
2022/10/29 16:26:43;;;;;;;21.00;7.13;;;;;;;;;;5023001;28;20124;-83
2022/10/29 16:29:16;;;;;;;17.67;5.88;;;;;;;;;;5026477;28;20103;-85
2022/10/29 16:31:43;;;;;;;19.33;6.40;;;;;;;;;;5018300;28;20045;-84
2022/10/29 16:34:14;;;;;;;19.02;6.03;;;;;;;;;;5024682;28;20079;-84
2022/10/29 16:36:47;;;;;;;19.50;7.72;;;;;;;;;;5019934;28;20156;-84
2022/10/29 16:39:15;;;;;;;21.15;6.68;;;;;;;;;;5023309;28;20567;-83
2022/10/29 16:41:47;;;;;;;18.90;6.57;;;;;;;;;;5019686;28;20038;-84
2022/10/29 16:44:19;;;;;;;16.17;6.88;;;;;;;;;;5021682;28;20095;-84
2022/10/29 16:46:47;;;;;;;19.80;7.28;;;;;;;;;;5013878;28;20747;-85
2022/10/29 16:49:15;;;;;;;17.60;6.90;;;;;;;;;;5034517;28;20049;-84
2022/10/29 16:51:49;;;;;;;19.52;6.97;;;;;;;;;;5018767;28;20042;-84
2022/10/29 16:54:21;;;;;;;17.58;6.55;;;;;;;;;;5018060;28;20187;-84
2022/10/29 16:56:51;;;;;;;19.55;7.70;;;;;;;;;;5015537;28;20072;-84
2022/10/29 16:59:19;;;;;;;19.67;8.02;;;;;;;;;;5029417;28;20050;-84
2022/10/29 17:01:47;;;;;;;20.45;8.48;;;;;;;;;;5012213;28;20933;-85
2022/10/29 17:04:15;;;;;;;14.85;7.28;;;;;;;;;;5017352;28;20068;-84
2022/10/29 17:06:43;;;;;;;21.25;7.57;;;;;;;;;;5021750;28;20048;-84
2022/10/29 17:09:36;;;;;;;15.57;7.72;;;;;;;;;;5021983;28;20046;-85
2022/10/29 17:12:29;;;;;;;24.13;8.00;;;;;;;;;;5023182;28;20033;-84
2022/10/29 17:14:57;;;;;;;17.13;7.32;;;;;;;;;;5021619;28;20103;-84
2022/10/29 17:17:25;;;;;;;19.02;7.07;;;;;;;;;;5017546;28;20745;-83
2022/10/29 17:20:17;;;;;;;15.85;6.93;;;;;;;;;;5020223;28;20034;-83
2022/10/29 17:22:51;;;;;;;15.13;7.32;;;;;;;;;;5019751;28;20122;-83
2022/10/29 17:25:43;;;;;;;25.58;9.95;;;;;;;;;;5021518;28;20174;-83
2022/10/29 17:28:11;;;;;;;22.77;9.38;;;;;;;;;;5019799;28;20038;-83
2022/10/29 17:30:39;;;;;;;23.73;9.80;;;;;;;;;;5021493;28;20039;-83
2022/10/29 17:33:11;;;;;;;19.98;9.25;;;;;;;;;;5020890;28;20042;-83
2022/10/29 17:35:39;;;;;;;25.98;9.50;;;;;;;;;;5021431;28;20124;-83
2022/10/29 17:38:07;;;;;;;28.25;10.00;;;;;;;;;;5017856;28;20034;-84
2022/10/29 17:40:35;;;;;;;20.08;9.23;;;;;;;;;;5022694;28;20123;-84
2022/10/29 17:43:03;;;;;;;23.73;9.73;;;;;;;;;;5021199;28;20049;-83
2022/10/29 17:45:31;;;;;;;22.08;8.50;;;;;;;;;;5018177;28;20042;-83
2022/10/29 17:48:00;;;;;;;23.00;9.23;;;;;;;;;;5019186;28;20047;-82
2022/10/29 17:50:33;;;;;;;27.85;10.90;;;;;;;;;;5020770;28;20084;-83
2022/10/29 17:53:01;;;;;;;21.83;9.18;;;;;;;;;;5022289;28;20124;-83
2022/10/29 17:55:59;;;;;;;24.70;9.10;;;;;;;;;;5021825;28;20070;-83
2022/10/29 17:58:53;;;;;;;16.73;8.82;;;;;;;;;;5021365;28;20038;-83
2022/10/29 18:01:45;;;;;;;22.77;8.98;;;;;;;;;;5013358;28;20762;-83
2022/10/29 18:04:13;;;;;;;20.17;8.35;;;;;;;;;;5019289;28;20057;-83
2022/10/29 18:06:45;;;;;;;21.45;8.68;;;;;;;;;;5032902;28;20088;-84
2022/10/29 18:09:17;;;;;;;21.38;9.70;;;;;;;;;;5013387;28;20902;-84
2022/10/29 18:11:49;;;;;;;20.20;9.93;;;;;;;;;;5016180;28;20045;-84
2022/10/29 18:14:21;;;;;;;28.27;9.80;;;;;;;;;;5018926;28;20099;-84
2022/10/29 18:16:49;;;;;;;22.10;10.52;;;;;;;;;;5016064;28;20460;-84
2022/10/29 18:19:17;;;;;;;29.75;10.70;;;;;;;;;;5018982;28;20065;-83
2022/10/29 18:21:49;;;;;;;23.98;10.68;;;;;;;;;;5019625;28;20065;-84
2022/10/29 18:24:18;;;;;;;26.10;10.65;;;;;;;;;;5019699;28;20120;-84
2022/10/29 18:26:48;;;;;;;24.77;10.10;;;;;;;;;;5032934;28;20046;-83
2022/10/29 18:29:21;;;;;;;22.55;9.65;;;;;;;;;;5018614;28;20041;-83
2022/10/29 18:31:49;;;;;;;27.30;10.27;;;;;;;;;;5021809;28;20044;-84
2022/10/29 18:34:41;;;;;;;24.58;10.38;;;;;;;;;;5021789;28;20072;-83
2022/10/29 18:37:14;;;;;;;18.60;9.77;;;;;;;;;;5018339;28;20073;-84
2022/10/29 18:39:41;;;;;;;18.05;8.02;;;;;;;;;;5021019;28;20169;-84
2022/10/29 18:42:09;;;;;;;24.23;9.45;;;;;;;;;;5025126;28;20091;-84
2022/10/29 18:44:37;;;;;;;21.75;10.18;;;;;;;;;;5022910;28;20034;-83
2022/10/29 18:47:05;;;;;;;23.38;9.90;;;;;;;;;;5025114;28;20444;-84
2022/10/29 18:49:33;;;;;;;25.38;12.23;;;;;;;;;;5015247;28;20048;-82
2022/10/29 18:52:03;;;;;;;27.98;11.90;;;;;;;;;;5022973;28;20033;-85
2022/10/29 18:54:31;;;;;;;25.60;10.63;;;;;;;;;;5019340;28;20038;-86
2022/10/29 18:56:59;;;;;;;24.58;10.43;;;;;;;;;;5020849;28;20034;-82
2022/10/29 18:59:27;;;;;;;31.73;11.73;;;;;;;;;;5023326;28;20510;-81
2022/10/29 19:01:55;;;;;;;25.98;11.88;;;;;;;;;;5037779;28;20049;-81
2022/10/29 19:04:23;;;;;;;28.35;11.82;;;;;;;;;;5022840;28;20045;-81
2022/10/29 19:06:52;;;;;;;21.40;9.50;;;;;;;;;;5024756;28;20491;-81
2022/10/29 19:09:21;;;;;;;22.58;9.77;;;;;;;;;;5018672;28;20125;-81
2022/10/29 19:11:53;;;;;;;31.13;12.10;;;;;;;;;;5023031;28;20037;-81
2022/10/29 19:14:51;;;;;;;28.80;12.10;;;;;;;;;;5022554;28;20065;-81
2022/10/29 19:17:19;;;;;;;21.83;11.88;;;;;;;;;;5018193;28;20216;-81
2022/10/29 19:19:51;;;;;;;31.13;12.20;;;;;;;;;;5020653;28;20038;-81
2022/10/29 19:22:19;;;;;;;23.42;10.73;;;;;;;;;;5033360;28;20377;-81
2022/10/29 19:24:47;;;;;;;31.67;12.52;;;;;;;;;;5021413;28;20053;-82
2022/10/29 19:27:15;;;;;;;23.13;11.85;;;;;;;;;;5018887;28;20041;-82
2022/10/29 19:29:43;;;;;;;23.90;11.63;;;;;;;;;;5018464;28;20045;-81
2022/10/29 19:32:11;;;;;;;30.50;13.23;;;;;;;;;;5020077;28;20045;-81
2022/10/29 19:34:39;;;;;;;25.42;11.45;;;;;;;;;;5022130;28;20045;-81
2022/10/29 19:37:07;;;;;;;32.00;12.98;;;;;;;;;;5023206;28;20034;-82
2022/10/29 19:39:35;;;;;;;28.90;12.20;;;;;;;;;;5021618;28;20414;-81
2022/10/29 19:42:03;;;;;;;28.38;10.85;;;;;;;;;;5024477;28;20140;-81
2022/10/29 19:44:31;;;;;;;22.17;10.52;;;;;;;;;;5019771;28;20029;-81
2022/10/29 19:47:03;;;;;;;32.42;11.93;;;;;;;;;;5019206;28;20594;-81
2022/10/29 19:49:31;;;;;;;28.40;12.27;;;;;;;;;;5020522;28;20072;-81
2022/10/29 19:52:23;;;;;;;25.90;11.23;;;;;;;;;;5022340;28;20679;-81
2022/10/29 19:55:15;;;;;;;29.30;11.55;;;;;;;;;;5022409;28;20030;-81
2022/10/29 19:57:47;;;;;;;24.55;11.05;;;;;;;;;;5022552;28;20475;-81
2022/10/29 20:00:15;;;;;;;19.95;9.82;;;;;;;;;;5018549;28;20040;-81
2022/10/29 20:02:45;;;;;;;28.02;12.65;;;;;;;;;;5021471;28;20045;-81
2022/10/29 20:05:14;;;;;;;24.02;10.52;;;;;;;;;;5019664;28;20042;-81
2022/10/29 20:07:41;;;;;;;17.60;10.38;;;;;;;;;;5018693;28;20037;-81
2022/10/29 20:10:33;;;;;;;21.08;10.18;;;;;;;;;;5017379;28;20040;-81
2022/10/29 20:13:07;;;;;;;20.05;10.23;;;;;;;;;;5025770;28;20045;-81
2022/10/29 20:15:37;;;;;;;17.60;10.65;;;;;;;;;;5019501;28;20033;-81
2022/10/29 20:18:29;;;;;;;22.15;10.13;;;;;;;;;;5019921;28;20041;-81
2022/10/29 20:21:01;;;;;;;22.42;10.10;;;;;;;;;;5020031;28;20491;-81
2022/10/29 20:23:29;;;;;;;23.58;10.02;;;;;;;;;;5021975;28;20041;-81
2022/10/29 20:26:21;;;;;;;21.73;10.52;;;;;;;;;;5019563;28;20043;-81
2022/10/29 20:28:49;;;;;;;25.67;12.48;;;;;;;;;;5020835;28;20061;-81
2022/10/29 20:31:18;;;;;;;29.60;12.65;;;;;;;;;;5019941;28;20046;-81
2022/10/29 20:34:09;;;;;;;26.85;13.18;;;;;;;;;;5022503;28;20821;-81
2022/10/29 20:36:37;;;;;;;37.50;14.27;;;;;;;;;;5017478;28;20112;-81
2022/10/29 20:39:29;;;;;;;39.17;15.43;;;;;;;;;;5020344;28;20407;-81
2022/10/29 20:42:01;;;;;;;32.20;14.90;;;;;;;;;;5020418;28;20046;-81
2022/10/29 20:44:29;;;;;;;27.10;13.55;;;;;;;;;;5022403;28;20029;-81
2022/10/29 20:47:01;;;;;;;37.38;14.98;;;;;;;;;;5004723;28;20574;-81
2022/10/29 20:49:29;;;;;;;30.85;15.18;;;;;;;;;;5024235;28;20029;-82
2022/10/29 20:51:57;;;;;;;28.20;14.45;;;;;;;;;;5019416;28;20037;-81
2022/10/29 20:54:29;;;;;;;31.77;15.85;;;;;;;;;;5017612;28;20040;-81
2022/10/29 20:56:57;;;;;;;28.63;14.82;;;;;;;;;;5018794;28;20033;-81
2022/10/29 20:59:25;;;;;;;36.00;16.65;;;;;;;;;;5017250;28;20125;-81
2022/10/29 21:01:53;;;;;;;33.70;15.75;;;;;;;;;;5017134;28;20033;-82
2022/10/29 21:04:21;;;;;;;30.00;13.88;;;;;;;;;;5019622;28;21734;-82
2022/10/29 21:06:49;;;;;;;48.05;15.55;;;;;;;;;;5017328;28;20049;-82
2022/10/29 21:09:21;;;;;;;33.38;14.95;;;;;;;;;;5020507;28;20042;-83
2022/10/29 21:11:53;;;;;;;39.17;16.30;;;;;;;;;;5015903;28;20149;-82